createdAt,value
2023-05-14T00:01:18.804Z,14.70
2023-05-14T00:03:46.572Z,14.70
2023-05-14T00:06:14.384Z,14.60
2023-05-14T00:08:43.470Z,14.60
2023-05-14T00:11:11.209Z,14.50
2023-05-14T00:13:39.057Z,14.40
2023-05-14T00:16:07.223Z,14.30
2023-05-14T00:18:35.076Z,14.40
2023-05-14T00:21:03.104Z,14.50
2023-05-14T00:23:30.897Z,14.40
2023-05-14T00:25:59.948Z,14.60
2023-05-14T00:28:27.676Z,14.70
2023-05-14T00:30:55.971Z,14.70
2023-05-14T00:33:23.837Z,14.80
2023-05-14T00:35:51.637Z,14.90
2023-05-14T00:38:19.562Z,14.60
2023-05-14T00:40:51.680Z,14.60
2023-05-14T00:43:22.468Z,14.50
2023-05-14T00:45:51.886Z,14.30
2023-05-14T00:48:21.025Z,14.30
2023-05-14T00:50:50.455Z,14.30
2023-05-14T00:53:18.988Z,14.30
2023-05-14T00:55:47.720Z,14.20
2023-05-14T00:58:15.663Z,14.20
2023-05-14T01:00:44.804Z,14.30
2023-05-14T01:03:12.681Z,14.20
2023-05-14T01:05:48.324Z,14.00
2023-05-14T01:08:30.098Z,14.10
2023-05-14T01:11:04.882Z,14.10
2023-05-14T01:13:38.854Z,14.10
2023-05-14T01:16:12.340Z,14.10
2023-05-14T01:18:42.258Z,14.20
2023-05-14T01:21:25.720Z,14.20
2023-05-14T01:23:53.456Z,14.00
2023-05-14T01:26:21.526Z,14.00
2023-05-14T01:28:52.700Z,14.10
2023-05-14T01:31:28.648Z,14.10
2023-05-14T01:33:58.450Z,14.00
2023-05-14T01:36:29.571Z,13.70
2023-05-14T01:38:58.270Z,13.70
2023-05-14T01:41:26.900Z,13.70
2023-05-14T01:43:54.724Z,13.60
2023-05-14T01:46:24.139Z,13.60
2023-05-14T01:48:51.969Z,13.40
2023-05-14T01:51:19.752Z,13.50
2023-05-14T01:53:48.813Z,13.50
2023-05-14T01:56:16.555Z,13.50
2023-05-14T01:58:44.275Z,13.40
2023-05-14T02:01:12.051Z,13.50
2023-05-14T02:03:39.871Z,13.50
2023-05-14T02:06:07.960Z,13.40
2023-05-14T02:08:35.705Z,13.50
2023-05-14T02:11:04.764Z,13.50
2023-05-14T02:13:32.500Z,13.40
2023-05-14T02:16:00.317Z,13.50
2023-05-14T02:18:28.090Z,13.40
2023-05-14T02:20:56.008Z,13.40
2023-05-14T02:23:34.219Z,13.30
2023-05-14T02:26:10.513Z,13.40
2023-05-14T02:28:38.277Z,13.40
2023-05-14T02:31:06.161Z,13.40
2023-05-14T02:33:33.920Z,13.30
2023-05-14T02:36:01.653Z,13.20
2023-05-14T02:38:29.373Z,13.20
2023-05-14T02:40:57.161Z,13.30
2023-05-14T02:43:26.174Z,13.40
2023-05-14T02:45:53.930Z,13.50
2023-05-14T02:48:21.625Z,13.60
2023-05-14T02:50:51.068Z,13.50
2023-05-14T02:53:18.898Z,13.40
2023-05-14T02:55:46.624Z,13.50
2023-05-14T02:58:14.972Z,13.40
2023-05-14T03:00:44.090Z,13.50
2023-05-14T03:03:12.321Z,13.60
2023-05-14T03:05:40.487Z,13.40
2023-05-14T03:08:08.357Z,13.30
2023-05-14T03:10:36.070Z,13.10
2023-05-14T03:13:03.891Z,12.90
2023-05-14T03:15:31.618Z,12.90
2023-05-14T03:18:00.746Z,12.70
2023-05-14T03:20:28.757Z,12.90
2023-05-14T03:22:56.641Z,12.90
2023-05-14T03:25:24.362Z,12.90
2023-05-14T03:27:52.179Z,12.90
2023-05-14T03:30:20.194Z,12.80
2023-05-14T03:32:48.215Z,12.70
2023-05-14T03:35:17.438Z,12.60
2023-05-14T03:37:45.142Z,12.50
2023-05-14T03:40:13.505Z,12.40
2023-05-14T03:42:41.229Z,12.40
2023-05-14T03:45:11.114Z,12.50
2023-05-14T03:47:38.985Z,12.70
2023-05-14T03:50:08.134Z,12.60
2023-05-14T03:52:37.247Z,12.70
2023-05-14T03:55:05.405Z,12.80
2023-05-14T03:57:33.107Z,12.90
2023-05-14T04:00:00.844Z,13.00
2023-05-14T04:02:28.665Z,12.90
2023-05-14T04:04:56.526Z,12.80
2023-05-14T04:07:24.258Z,12.70
2023-05-14T04:09:53.282Z,12.90
2023-05-14T04:12:20.966Z,12.90
2023-05-14T04:14:48.697Z,12.90
2023-05-14T04:17:16.399Z,12.80
2023-05-14T04:19:44.133Z,12.80
2023-05-14T04:22:11.822Z,12.90
2023-05-14T04:24:39.527Z,13.00
2023-05-14T04:27:08.561Z,12.90
2023-05-14T04:29:36.297Z,12.80
2023-05-14T04:32:04.821Z,12.80
2023-05-14T04:34:32.648Z,12.70
2023-05-14T04:37:00.365Z,12.70
2023-05-14T04:39:28.108Z,12.80
2023-05-14T04:41:55.799Z,12.80
2023-05-14T04:44:24.882Z,12.80
2023-05-14T04:46:52.646Z,12.80
2023-05-14T04:49:20.804Z,13.00
2023-05-14T04:51:49.361Z,13.10
2023-05-14T04:54:17.085Z,13.10
2023-05-14T04:56:44.832Z,13.20
2023-05-14T04:59:12.657Z,13.30
2023-05-14T05:01:41.737Z,13.20
2023-05-14T05:04:09.650Z,13.30
2023-05-14T05:06:37.477Z,13.30
2023-05-14T05:09:05.433Z,13.30
2023-05-14T05:11:33.219Z,13.40
2023-05-14T05:14:00.989Z,13.40
2023-05-14T05:16:28.828Z,13.50
2023-05-14T05:18:57.917Z,13.60
2023-05-14T05:21:25.826Z,13.70
2023-05-14T05:23:53.588Z,13.80
2023-05-14T05:26:22.056Z,13.90
2023-05-14T05:28:49.791Z,14.00
2023-05-14T05:31:19.695Z,14.10
2023-05-14T05:33:47.794Z,14.10
2023-05-14T05:36:16.909Z,14.20
2023-05-14T05:38:44.636Z,14.40
2023-05-14T05:41:12.361Z,14.50
2023-05-14T05:43:40.100Z,14.40
2023-05-14T05:46:08.583Z,14.60
2023-05-14T05:48:36.310Z,14.70
2023-05-14T05:51:04.095Z,14.80
2023-05-14T05:53:33.213Z,14.90
2023-05-14T05:56:01.001Z,15.00
2023-05-14T05:58:28.755Z,15.00
2023-05-14T06:00:57.626Z,15.00
2023-05-14T06:03:25.383Z,15.00
2023-05-14T06:05:53.541Z,15.10
2023-05-14T06:08:21.302Z,15.10
2023-05-14T06:10:50.348Z,15.00
2023-05-14T06:13:18.063Z,15.10
2023-05-14T06:15:45.786Z,15.30
2023-05-14T06:18:13.534Z,15.40
2023-05-14T06:20:41.662Z,15.40
2023-05-14T06:23:11.169Z,15.40
2023-05-14T06:25:38.969Z,15.40
2023-05-14T06:28:08.129Z,15.60
2023-05-14T06:30:35.869Z,15.60
2023-05-14T06:33:03.597Z,15.50
2023-05-14T06:35:31.398Z,15.40
2023-05-14T06:37:59.129Z,15.50
2023-05-14T06:40:26.895Z,15.80
2023-05-14T06:42:54.605Z,15.90
2023-05-14T06:45:23.673Z,16.00
2023-05-14T06:47:51.417Z,16.00
2023-05-14T06:50:19.306Z,16.00
2023-05-14T06:52:47.128Z,15.90
2023-05-14T06:55:14.855Z,15.90
2023-05-14T06:57:42.692Z,16.10
2023-05-14T07:00:11.384Z,16.30
2023-05-14T07:02:40.461Z,16.20
2023-05-14T07:05:09.498Z,16.00
2023-05-14T07:07:37.459Z,16.10
2023-05-14T07:10:06.022Z,16.40
2023-05-14T07:12:33.717Z,16.60
2023-05-14T07:15:01.423Z,16.80
2023-05-14T07:17:29.257Z,17.00
2023-05-14T07:19:58.382Z,17.10
2023-05-14T07:22:26.154Z,17.30
2023-05-14T07:24:53.881Z,17.40
2023-05-14T07:27:21.630Z,17.60
2023-05-14T07:29:50.295Z,17.80
2023-05-14T07:32:18.012Z,18.10
2023-05-14T07:34:46.329Z,18.10
2023-05-14T07:37:15.390Z,18.10
2023-05-14T07:39:43.164Z,18.10
2023-05-14T07:42:11.671Z,18.10
2023-05-14T07:44:41.411Z,18.30
2023-05-14T07:47:09.167Z,18.20
2023-05-14T07:49:36.942Z,18.40
2023-05-14T07:52:05.076Z,18.70
2023-05-14T07:54:34.159Z,19.00
2023-05-14T07:57:01.912Z,19.00
2023-05-14T07:59:29.631Z,19.40
2023-05-14T08:01:57.489Z,20.00
2023-05-14T08:04:25.306Z,20.30
2023-05-14T08:06:53.236Z,20.40
2023-05-14T08:09:20.934Z,20.30
2023-05-14T08:11:50.247Z,20.30
2023-05-14T08:14:17.942Z,20.10
2023-05-14T08:16:45.841Z,20.20
2023-05-14T08:19:14.387Z,20.30
2023-05-14T08:21:42.353Z,20.40
2023-05-14T08:24:10.177Z,20.60
2023-05-14T08:26:38.742Z,20.80
2023-05-14T08:29:09.979Z,20.70
2023-05-14T08:31:38.464Z,20.50
2023-05-14T08:34:06.177Z,20.80
2023-05-14T08:36:33.920Z,20.70
2023-05-14T08:39:01.646Z,20.60
2023-05-14T08:41:29.844Z,20.50
2023-05-14T08:44:05.064Z,20.30
2023-05-14T08:46:34.675Z,20.40
2023-05-14T08:49:14.466Z,20.50
2023-05-14T08:51:42.660Z,20.70
2023-05-14T08:54:14.542Z,20.70
2023-05-14T08:56:44.627Z,20.60
2023-05-14T08:59:12.460Z,20.70
2023-05-14T09:01:47.640Z,20.60
2023-05-14T09:04:17.703Z,20.80
2023-05-14T09:06:49.607Z,20.90
2023-05-14T09:09:17.426Z,21.30
2023-05-14T09:11:47.316Z,21.40
2023-05-14T09:14:15.109Z,21.60
2023-05-14T09:16:46.403Z,21.70
2023-05-14T09:19:15.591Z,21.80
2023-05-14T09:21:45.571Z,21.90
2023-05-14T09:24:21.096Z,22.20
2023-05-14T09:26:52.502Z,22.20
2023-05-14T09:29:20.309Z,21.90
2023-05-14T09:31:51.814Z,21.90
2023-05-14T09:34:25.408Z,21.80
2023-05-14T09:36:57.137Z,21.70
2023-05-14T09:39:25.154Z,21.60
2023-05-14T09:41:53.267Z,21.60
2023-05-14T09:44:27.132Z,21.60
2023-05-14T09:46:56.857Z,21.80
2023-05-14T09:49:24.679Z,21.90
2023-05-14T09:51:52.593Z,21.90
2023-05-14T09:54:20.437Z,21.80
2023-05-14T09:56:48.191Z,21.90
2023-05-14T09:59:15.974Z,21.80
2023-05-14T10:01:44.082Z,21.70
2023-05-14T10:04:13.741Z,22.00
2023-05-14T10:06:43.629Z,22.00
2023-05-14T10:09:13.651Z,22.30
2023-05-14T10:11:44.722Z,22.30
2023-05-14T10:14:18.465Z,22.10
2023-05-14T10:16:49.865Z,21.80
2023-05-14T10:19:21.766Z,22.20
2023-05-14T10:21:54.181Z,22.30
2023-05-14T10:24:22.970Z,22.50
2023-05-14T10:26:50.873Z,22.80
2023-05-14T10:29:18.608Z,22.90
2023-05-14T10:31:48.199Z,22.90
2023-05-14T10:34:40.670Z,23.00
2023-05-14T10:37:21.711Z,23.20
2023-05-14T10:39:51.629Z,23.10
2023-05-14T10:42:22.212Z,23.30
2023-05-14T10:44:54.125Z,23.40
2023-05-14T10:47:22.281Z,23.50
2023-05-14T10:49:53.247Z,23.50
2023-05-14T10:52:21.078Z,23.10
2023-05-14T10:54:53.055Z,23.00
2023-05-14T10:57:21.970Z,23.00
2023-05-14T10:59:53.145Z,23.00
2023-05-14T11:02:23.195Z,23.30
2023-05-14T11:05:03.452Z,23.50
2023-05-14T11:07:33.184Z,23.70
2023-05-14T11:10:03.473Z,23.50
2023-05-14T11:12:31.545Z,23.20
2023-05-14T11:15:00.670Z,23.40
2023-05-14T11:17:29.618Z,23.50
2023-05-14T11:19:59.749Z,23.20
2023-05-14T11:22:27.882Z,23.10
2023-05-14T11:24:55.759Z,23.10
2023-05-14T11:27:24.050Z,23.20
2023-05-14T11:29:52.191Z,23.40
2023-05-14T11:32:20.918Z,23.60
2023-05-14T11:34:49.059Z,23.60
2023-05-14T11:37:18.191Z,24.00
2023-05-14T11:39:49.825Z,24.30
2023-05-14T11:42:19.516Z,24.10
2023-05-14T11:44:48.987Z,24.20
2023-05-14T11:47:18.201Z,24.20
2023-05-14T11:49:46.075Z,24.00
2023-05-14T11:52:15.060Z,23.50
2023-05-14T11:54:45.197Z,23.20
2023-05-14T11:57:14.863Z,23.40
2023-05-14T11:59:42.989Z,23.80
2023-05-14T12:02:12.710Z,24.10
2023-05-14T12:04:41.503Z,24.30
2023-05-14T12:07:11.312Z,24.00
2023-05-14T12:09:44.245Z,23.90
2023-05-14T12:12:14.251Z,23.70
2023-05-14T12:14:43.850Z,23.70
2023-05-14T12:17:14.106Z,23.80
2023-05-14T12:19:42.968Z,24.10
2023-05-14T12:22:12.411Z,24.30
2023-05-14T12:24:40.227Z,24.50
2023-05-14T12:27:08.873Z,24.30
2023-05-14T12:29:39.530Z,24.30
2023-05-14T12:32:10.909Z,24.60
2023-05-14T12:34:39.567Z,24.70
2023-05-14T12:37:09.767Z,25.00
2023-05-14T12:39:37.560Z,25.20
2023-05-14T12:42:05.848Z,25.30
2023-05-14T12:44:33.552Z,25.70
2023-05-14T12:47:03.186Z,25.80
2023-05-14T12:49:30.906Z,25.80
2023-05-14T12:52:17.108Z,25.70
2023-05-14T12:54:46.272Z,26.10
2023-05-14T12:57:14.078Z,26.10
2023-05-14T12:59:42.043Z,26.40
2023-05-14T13:02:11.128Z,26.50
2023-05-14T13:04:39.032Z,26.80
2023-05-14T13:07:08.826Z,26.80
2023-05-14T13:09:36.564Z,26.80
2023-05-14T13:12:04.628Z,26.90
2023-05-14T13:14:32.353Z,27.10
2023-05-14T13:17:00.268Z,27.20
2023-05-14T13:19:29.584Z,27.20
2023-05-14T13:21:57.351Z,27.40
2023-05-14T13:24:25.560Z,27.30
2023-05-14T13:26:53.275Z,27.30
2023-05-14T13:29:20.984Z,27.20
2023-05-14T13:31:48.703Z,27.00
2023-05-14T13:34:16.464Z,27.20
2023-05-14T13:36:47.067Z,27.40
2023-05-14T13:39:14.845Z,27.20
2023-05-14T13:41:42.951Z,26.70
2023-05-14T13:44:10.804Z,26.70
2023-05-14T13:46:38.758Z,26.20
2023-05-14T13:49:06.540Z,25.80
2023-05-14T13:51:34.267Z,25.60
2023-05-14T13:54:03.353Z,25.30
2023-05-14T13:56:31.213Z,25.40
2023-05-14T13:58:58.958Z,26.00
2023-05-14T14:01:26.796Z,26.10
2023-05-14T14:03:54.546Z,26.50
2023-05-14T14:06:22.241Z,26.90
2023-05-14T14:08:49.904Z,27.00
2023-05-14T14:11:19.007Z,26.90
2023-05-14T14:13:46.933Z,26.60
2023-05-14T14:16:14.695Z,26.40
2023-05-14T14:18:43.138Z,26.50
2023-05-14T14:21:11.157Z,26.50
2023-05-14T14:23:38.951Z,26.70
2023-05-14T14:26:06.767Z,26.70
2023-05-14T14:28:35.853Z,26.70
2023-05-14T14:31:03.624Z,26.50
2023-05-14T14:33:31.302Z,26.00
2023-05-14T14:35:59.089Z,25.70
2023-05-14T14:38:26.784Z,25.80
2023-05-14T14:40:54.497Z,25.70
2023-05-14T14:43:22.202Z,25.80
2023-05-14T14:45:51.436Z,25.70
2023-05-14T14:48:27.921Z,25.40
2023-05-14T14:50:56.339Z,25.30
2023-05-14T14:53:24.801Z,25.20
2023-05-14T14:55:52.868Z,25.10
2023-05-14T14:58:21.525Z,25.00
2023-05-14T15:00:52.623Z,24.90
2023-05-14T15:03:20.749Z,24.90
2023-05-14T15:05:48.640Z,24.90
2023-05-14T15:08:16.663Z,24.50
2023-05-14T15:10:45.823Z,24.50
2023-05-14T15:13:13.852Z,24.60
2023-05-14T15:15:41.628Z,24.70
2023-05-14T15:18:10.980Z,24.60
2023-05-14T15:20:38.733Z,24.50
2023-05-14T15:23:07.049Z,24.80
2023-05-14T15:25:34.776Z,24.90
2023-05-14T15:28:02.456Z,24.90
2023-05-14T15:30:31.134Z,24.90
2023-05-14T15:32:58.907Z,25.00
2023-05-14T15:35:27.984Z,25.40
2023-05-14T15:37:57.413Z,25.60
2023-05-14T15:40:25.597Z,25.50
2023-05-14T15:42:53.404Z,24.90
2023-05-14T15:45:21.241Z,24.80
2023-05-14T15:47:49.095Z,24.60
2023-05-14T15:50:16.839Z,24.80
2023-05-14T15:52:46.003Z,25.00
2023-05-14T15:55:13.837Z,24.90
2023-05-14T15:57:41.525Z,25.00
2023-05-14T16:00:11.068Z,25.00
2023-05-14T16:02:39.882Z,25.00
2023-05-14T16:05:08.933Z,24.90
2023-05-14T16:07:37.446Z,25.10
2023-05-14T16:10:07.663Z,24.80
2023-05-14T16:12:35.435Z,24.90
2023-05-14T16:15:03.245Z,24.70
2023-05-14T16:17:32.688Z,24.50
2023-05-14T16:20:00.733Z,24.10
2023-05-14T16:22:29.332Z,24.00
2023-05-14T16:24:57.031Z,24.10
2023-05-14T16:27:26.998Z,24.10
2023-05-14T16:29:58.036Z,24.30
2023-05-14T16:32:25.876Z,24.30
2023-05-14T16:34:53.655Z,24.40
2023-05-14T16:37:21.613Z,24.40
2023-05-14T16:39:49.920Z,24.30
2023-05-14T16:42:17.721Z,24.20
2023-05-14T16:44:46.955Z,23.90
2023-05-14T16:47:14.857Z,24.00
2023-05-14T16:49:43.195Z,24.10
2023-05-14T16:52:10.970Z,24.10
2023-05-14T16:54:38.667Z,23.90
2023-05-14T16:57:06.741Z,23.70
2023-05-14T16:59:34.456Z,23.60
2023-05-14T17:02:03.563Z,23.30
2023-05-14T17:04:33.300Z,23.20
2023-05-14T17:07:01.471Z,23.20
2023-05-14T17:09:29.190Z,22.90
2023-05-14T17:11:57.145Z,22.80
2023-05-14T17:14:25.092Z,22.80
2023-05-14T17:16:52.947Z,22.70
2023-05-14T17:19:22.048Z,22.40
2023-05-14T17:21:49.788Z,22.50
2023-05-14T17:24:17.520Z,22.60
2023-05-14T17:26:45.326Z,22.50
2023-05-14T17:29:13.006Z,22.60
2023-05-14T17:31:40.750Z,22.50
2023-05-14T17:34:08.497Z,22.50
2023-05-14T17:36:37.556Z,22.60
2023-05-14T17:39:05.376Z,22.50
2023-05-14T17:41:33.223Z,22.50
2023-05-14T17:44:00.932Z,22.50
2023-05-14T17:46:28.792Z,22.40
2023-05-14T17:48:58.153Z,22.30
2023-05-14T17:51:26.054Z,22.30
2023-05-14T17:53:55.190Z,22.10
2023-05-14T17:56:23.032Z,22.10
2023-05-14T17:58:50.984Z,22.10
2023-05-14T18:01:18.986Z,22.10
2023-05-14T18:03:46.837Z,22.10
2023-05-14T18:06:15.009Z,22.10
2023-05-14T18:08:42.831Z,22.10
2023-05-14T18:11:11.896Z,22.00
2023-05-14T18:13:39.638Z,22.10
2023-05-14T18:16:07.557Z,22.00
2023-05-14T18:18:35.572Z,22.00
2023-05-14T18:21:03.323Z,21.90
2023-05-14T18:23:31.406Z,21.80
2023-05-14T18:26:00.144Z,21.70
2023-05-14T18:28:29.366Z,21.70
2023-05-14T18:30:57.144Z,21.70
2023-05-14T18:33:31.137Z,21.60
2023-05-14T18:35:58.911Z,21.50
2023-05-14T18:38:26.893Z,21.50
2023-05-14T18:40:54.668Z,21.40
2023-05-14T18:43:22.386Z,21.50
2023-05-14T18:45:52.111Z,21.50
2023-05-14T18:48:19.920Z,21.60
2023-05-14T18:50:47.685Z,21.50
2023-05-14T18:53:15.407Z,21.40
2023-05-14T18:55:43.194Z,21.20
2023-05-14T18:58:12.035Z,21.10
2023-05-14T19:00:39.848Z,21.00
2023-05-14T19:03:08.984Z,20.90
2023-05-14T19:05:36.888Z,20.90
2023-05-14T19:08:05.961Z,20.70
2023-05-14T19:10:35.358Z,20.70
2023-05-14T19:13:04.385Z,20.50
2023-05-14T19:15:33.716Z,20.40
2023-05-14T19:18:02.060Z,20.20
2023-05-14T19:20:31.310Z,20.10
2023-05-14T19:22:59.039Z,19.90
2023-05-14T19:25:27.834Z,19.70
2023-05-14T19:27:56.477Z,19.70
2023-05-14T19:30:24.226Z,19.80
2023-05-14T19:32:53.190Z,19.70
2023-05-14T19:35:20.910Z,19.60
2023-05-14T19:37:49.960Z,19.40
2023-05-14T19:40:17.804Z,19.20
2023-05-14T19:42:45.537Z,19.10
2023-05-14T19:45:13.691Z,19.00
2023-05-14T19:47:42.721Z,18.90
2023-05-14T19:50:11.213Z,19.00
2023-05-14T19:52:39.361Z,19.10
2023-05-14T19:55:09.046Z,19.00
2023-05-14T19:57:38.751Z,19.10
2023-05-14T20:00:08.814Z,19.00
2023-05-14T20:02:36.877Z,18.80
2023-05-14T20:05:06.685Z,18.80
2023-05-14T20:07:34.399Z,18.70
2023-05-14T20:10:02.304Z,18.70
2023-05-14T20:12:31.359Z,18.70
2023-05-14T20:14:59.103Z,18.60
2023-05-14T20:17:26.933Z,18.50
2023-05-14T20:19:54.810Z,18.40
2023-05-14T20:22:22.510Z,18.20
2023-05-14T20:24:50.467Z,18.20
2023-05-14T20:27:18.128Z,18.10
2023-05-14T20:29:47.705Z,18.10
2023-05-14T20:32:15.602Z,18.00
2023-05-14T20:34:43.352Z,17.70
2023-05-14T20:37:11.065Z,17.80
2023-05-14T20:39:38.828Z,17.90
2023-05-14T20:42:07.190Z,17.80
2023-05-14T20:44:34.977Z,17.90
2023-05-14T20:47:04.077Z,17.70
2023-05-14T20:49:31.788Z,17.70
2023-05-14T20:51:59.476Z,17.70
2023-05-14T20:54:27.218Z,17.70
2023-05-14T20:56:54.940Z,17.80
2023-05-14T20:59:22.737Z,17.80
2023-05-14T21:01:50.477Z,17.80
2023-05-14T21:04:19.672Z,17.80
2023-05-14T21:06:47.655Z,17.80
2023-05-14T21:09:15.336Z,17.70
2023-05-14T21:11:43.037Z,17.80
2023-05-14T21:14:10.764Z,17.90
2023-05-14T21:16:38.534Z,18.00
2023-05-14T21:19:06.333Z,18.00
2023-05-14T21:21:35.443Z,18.00
2023-05-14T21:24:03.274Z,18.10
2023-05-14T21:26:32.942Z,17.50
2023-05-14T21:29:01.302Z,17.00
2023-05-14T21:31:29.071Z,16.60
2023-05-14T21:33:56.997Z,16.50
2023-05-14T21:36:24.824Z,16.50
2023-05-14T21:38:53.968Z,16.80
2023-05-14T21:41:22.063Z,17.10
2023-05-14T21:43:49.780Z,17.30
2023-05-14T21:46:17.533Z,17.40
2023-05-14T21:48:45.350Z,17.40
2023-05-14T21:51:13.112Z,17.00
2023-05-14T21:53:40.799Z,17.00
2023-05-14T21:56:10.327Z,17.10
2023-05-14T21:58:38.069Z,17.30
2023-05-14T22:01:05.895Z,17.40
2023-05-14T22:03:33.678Z,17.50
2023-05-14T22:06:01.602Z,17.40
2023-05-14T22:08:30.684Z,17.30
2023-05-14T22:10:58.510Z,17.50
2023-05-14T22:13:27.581Z,17.60
2023-05-14T22:16:08.734Z,17.60
2023-05-14T22:18:40.347Z,17.60
2023-05-14T22:21:08.069Z,17.50
2023-05-14T22:23:36.131Z,17.60
2023-05-14T22:26:04.142Z,17.60
2023-05-14T22:28:33.237Z,17.60
2023-05-14T22:31:01.095Z,17.60
2023-05-14T22:33:28.781Z,17.70
2023-05-14T22:35:56.494Z,17.80
2023-05-14T22:38:24.193Z,17.80
2023-05-14T22:40:51.999Z,17.70
2023-05-14T22:43:19.747Z,17.80
2023-05-14T22:45:48.833Z,17.70
2023-05-14T22:48:16.581Z,17.60
2023-05-14T22:50:44.375Z,17.60
2023-05-14T22:53:12.101Z,17.60
2023-05-14T22:55:39.802Z,17.60
2023-05-14T22:58:08.203Z,17.50
2023-05-14T23:00:35.915Z,17.60
2023-05-14T23:03:05.071Z,17.60
2023-05-14T23:05:32.848Z,17.40
2023-05-14T23:08:00.665Z,17.40
2023-05-14T23:10:28.838Z,17.40
2023-05-14T23:12:56.579Z,17.40
2023-05-14T23:15:24.489Z,17.50
2023-05-14T23:17:52.452Z,17.60
2023-05-14T23:20:21.590Z,17.70
2023-05-14T23:22:49.310Z,17.60
2023-05-14T23:25:17.189Z,17.40
2023-05-14T23:27:44.933Z,17.50
2023-05-14T23:30:13.385Z,17.60
2023-05-14T23:32:41.127Z,17.60
2023-05-14T23:35:09.444Z,17.50
2023-05-14T23:37:42.452Z,17.50
2023-05-14T23:40:11.034Z,17.70
2023-05-14T23:42:38.765Z,17.50
2023-05-14T23:45:07.278Z,17.60
2023-05-14T23:47:35.093Z,17.50
2023-05-14T23:50:02.839Z,17.50
2023-05-14T23:52:30.536Z,17.60
2023-05-14T23:54:59.540Z,17.40
2023-05-14T23:57:27.396Z,17.20
2023-05-14T23:59:55.318Z,17.20
